Hauptseite
METAR-TAF:

METAR-TAF

Flughäfen :

Flugplatz Laupheim

Laupheim, Deutschland

Breite: 48-13N, Länge: 009-55E, Höhe: 538 m

Beobachtung

Neuester Wetterbericht von vor 56 Minuten, um 23:20 UTC
Windstille
Temperatur 18°C
Luftfeuchtigkeit 83%
Luftdruck 1019 hPa
Sichtweite 10 km oder mehr

METAR: ETHL 202320Z 00000KT 9999 18/15 Q1019 BLU+

Zeit: 02:16 (00:16 UTC)

Prognose

Neuester Wetterbericht von vor 9 Stunden und 14 Minuten, um 15:02 UTC
Gültige Prognose vom 20 um 14 UTC bis 20 um 23 UTC
Wind 7 kt aus Ost/Nordost
Sichtweite: 1500 m
Leicht bewölkt in der Höhe von 5000 ft

TAF: ETHL 201502Z 2014/2023 06007KT 9999 NSW FEW050 CANCEL 1500

Wetterbeobachtungen und Prognosen von mehr als 4000 Flughäfen (METAR und TAF Bericht).

Die verfügbaren Stationen werden durch gelbe und rote Markierungen auf der Karte dargestellt.

Führen Sie die Maus auf sie, um den Namen der Station zu sehen.

Darauf klicken, um die Beobachtung von Wetterbeobachtungen und Prognosen zu sehen.

Um die Karte zu ändern : klicken Sie auf den grünen Tasten mit einem schwarzen Kreuz Zum Vergrößern, auf den grünen Button mit einem Gedankenstrich zu verkleinern, oder auf die grünen Pfeile für benachbarte Karten.


METAR-TAF: